sensor_id;sensor_type;location;lat;lon;timestamp;temperature;humidity
14850;DHT22;7517;48.400;11.770;2023-03-01T00:01:19;7.70;58.70
14850;DHT22;7517;48.400;11.770;2023-03-01T00:03:50;7.70;58.70
14850;DHT22;7517;48.400;11.770;2023-03-01T00:06:18;7.70;58.80
14850;DHT22;7517;48.400;11.770;2023-03-01T00:08:47;7.70;58.60
14850;DHT22;7517;48.400;11.770;2023-03-01T00:11:16;7.70;58.70
14850;DHT22;7517;48.400;11.770;2023-03-01T00:13:47;7.70;58.60
14850;DHT22;7517;48.400;11.770;2023-03-01T00:16:19;7.70;58.70
14850;DHT22;7517;48.400;11.770;2023-03-01T00:18:49;7.70;58.80
14850;DHT22;7517;48.400;11.770;2023-03-01T00:21:18;7.70;58.80
14850;DHT22;7517;48.400;11.770;2023-03-01T00:23:48;7.60;58.90
14850;DHT22;7517;48.400;11.770;2023-03-01T00:26:17;7.70;58.90
14850;DHT22;7517;48.400;11.770;2023-03-01T00:28:46;7.60;58.80
14850;DHT22;7517;48.400;11.770;2023-03-01T00:31:16;7.60;58.80
14850;DHT22;7517;48.400;11.770;2023-03-01T00:33:45;7.60;58.90
14850;DHT22;7517;48.400;11.770;2023-03-01T00:36:15;7.60;58.80
14850;DHT22;7517;48.400;11.770;2023-03-01T00:38:45;7.70;58.90
14850;DHT22;7517;48.400;11.770;2023-03-01T00:41:14;7.60;58.80
14850;DHT22;7517;48.400;11.770;2023-03-01T00:43:44;7.60;58.90
14850;DHT22;7517;48.400;11.770;2023-03-01T00:46:14;7.60;58.90
14850;DHT22;7517;48.400;11.770;2023-03-01T00:48:43;7.60;59.00
14850;DHT22;7517;48.400;11.770;2023-03-01T00:51:14;7.60;59.00
14850;DHT22;7517;48.400;11.770;2023-03-01T00:53:43;7.60;59.00
14850;DHT22;7517;48.400;11.770;2023-03-01T00:56:13;7.60;59.00
14850;DHT22;7517;48.400;11.770;2023-03-01T00:58:42;7.60;59.00
14850;DHT22;7517;48.400;11.770;2023-03-01T01:01:11;7.60;59.10
14850;DHT22;7517;48.400;11.770;2023-03-01T01:03:45;7.60;59.00
14850;DHT22;7517;48.400;11.770;2023-03-01T01:06:16;7.60;59.00
14850;DHT22;7517;48.400;11.770;2023-03-01T01:08:45;7.60;59.20
14850;DHT22;7517;48.400;11.770;2023-03-01T01:11:14;7.60;59.20
14850;DHT22;7517;48.400;11.770;2023-03-01T01:13:41;7.60;59.80
14850;DHT22;7517;48.400;11.770;2023-03-01T01:16:10;7.60;59.20
14850;DHT22;7517;48.400;11.770;2023-03-01T01:18:38;7.60;59.20
14850;DHT22;7517;48.400;11.770;2023-03-01T01:21:07;7.60;59.30
14850;DHT22;7517;48.400;11.770;2023-03-01T01:23:38;7.60;59.20
14850;DHT22;7517;48.400;11.770;2023-03-01T01:26:08;7.60;59.10
14850;DHT22;7517;48.400;11.770;2023-03-01T01:28:38;7.60;59.20
14850;DHT22;7517;48.400;11.770;2023-03-01T01:31:06;7.60;59.20
14850;DHT22;7517;48.400;11.770;2023-03-01T01:33:34;7.50;59.20
14850;DHT22;7517;48.400;11.770;2023-03-01T01:36:03;7.50;59.20
14850;DHT22;7517;48.400;11.770;2023-03-01T01:38:31;7.50;59.20
14850;DHT22;7517;48.400;11.770;2023-03-01T01:41:00;7.50;59.20
14850;DHT22;7517;48.400;11.770;2023-03-01T01:43:30;7.50;59.20
14850;DHT22;7517;48.400;11.770;2023-03-01T01:46:02;7.50;59.20
14850;DHT22;7517;48.400;11.770;2023-03-01T01:48:41;7.50;59.30
14850;DHT22;7517;48.400;11.770;2023-03-01T01:51:13;7.50;59.40
14850;DHT22;7517;48.400;11.770;2023-03-01T01:53:49;7.50;59.40
14850;DHT22;7517;48.400;11.770;2023-03-01T01:56:24;7.50;59.30
14850;DHT22;7517;48.400;11.770;2023-03-01T01:58:54;7.50;59.20
14850;DHT22;7517;48.400;11.770;2023-03-01T02:01:22;7.50;59.20
14850;DHT22;7517;48.400;11.770;2023-03-01T02:03:50;7.50;59.30
14850;DHT22;7517;48.400;11.770;2023-03-01T02:06:22;7.50;59.40
14850;DHT22;7517;48.400;11.770;2023-03-01T02:08:55;7.50;59.30
14850;DHT22;7517;48.400;11.770;2023-03-01T02:11:29;7.40;59.30
14850;DHT22;7517;48.400;11.770;2023-03-01T02:13:59;7.40;59.80
14850;DHT22;7517;48.400;11.770;2023-03-01T02:16:28;7.40;59.20
14850;DHT22;7517;48.400;11.770;2023-03-01T02:18:56;7.40;59.20
14850;DHT22;7517;48.400;11.770;2023-03-01T02:21:33;7.40;59.20
14850;DHT22;7517;48.400;11.770;2023-03-01T02:24:17;7.40;59.20
14850;DHT22;7517;48.400;11.770;2023-03-01T02:26:55;7.40;59.20
14850;DHT22;7517;48.400;11.770;2023-03-01T02:29:25;7.40;59.20
14850;DHT22;7517;48.400;11.770;2023-03-01T02:31:57;7.20;59.10
14850;DHT22;7517;48.400;11.770;2023-03-01T02:34:31;7.30;59.20
14850;DHT22;7517;48.400;11.770;2023-03-01T02:37:01;7.30;59.80
14850;DHT22;7517;48.400;11.770;2023-03-01T02:39:33;7.30;59.20
14850;DHT22;7517;48.400;11.770;2023-03-01T02:42:12;7.30;59.00
14850;DHT22;7517;48.400;11.770;2023-03-01T02:44:43;7.20;59.00
14850;DHT22;7517;48.400;11.770;2023-03-01T02:47:11;7.20;59.00
14850;DHT22;7517;48.400;11.770;2023-03-01T02:49:39;7.20;58.90
14850;DHT22;7517;48.400;11.770;2023-03-01T02:52:32;7.20;58.90
14850;DHT22;7517;48.400;11.770;2023-03-01T02:55:23;7.20;58.80
14850;DHT22;7517;48.400;11.770;2023-03-01T02:57:50;7.10;58.80
14850;DHT22;7517;48.400;11.770;2023-03-01T03:00:23;7.10;58.80
14850;DHT22;7517;48.400;11.770;2023-03-01T03:02:53;7.00;58.90
14850;DHT22;7517;48.400;11.770;2023-03-01T03:05:26;7.00;58.90
14850;DHT22;7517;48.400;11.770;2023-03-01T03:07:56;7.00;58.90
14850;DHT22;7517;48.400;11.770;2023-03-01T03:10:26;6.90;58.80
14850;DHT22;7517;48.400;11.770;2023-03-01T03:12:57;6.90;58.70
14850;DHT22;7517;48.400;11.770;2023-03-01T03:15:29;6.80;59.20
14850;DHT22;7517;48.400;11.770;2023-03-01T03:17:58;6.80;58.50
14850;DHT22;7517;48.400;11.770;2023-03-01T03:20:27;6.70;58.50
14850;DHT22;7517;48.400;11.770;2023-03-01T03:22:56;6.70;58.40
14850;DHT22;7517;48.400;11.770;2023-03-01T03:25:25;6.60;58.30
14850;DHT22;7517;48.400;11.770;2023-03-01T03:27:55;6.60;58.40
14850;DHT22;7517;48.400;11.770;2023-03-01T03:30:26;6.50;58.40
14850;DHT22;7517;48.400;11.770;2023-03-01T03:32:57;6.40;58.50
14850;DHT22;7517;48.400;11.770;2023-03-01T03:35:28;6.40;58.60
14850;DHT22;7517;48.400;11.770;2023-03-01T03:37:58;6.30;58.60
14850;DHT22;7517;48.400;11.770;2023-03-01T03:40:30;6.30;58.60
14850;DHT22;7517;48.400;11.770;2023-03-01T03:43:00;6.20;58.50
14850;DHT22;7517;48.400;11.770;2023-03-01T03:45:29;6.20;58.60
14850;DHT22;7517;48.400;11.770;2023-03-01T03:47:58;6.10;58.60
14850;DHT22;7517;48.400;11.770;2023-03-01T03:50:26;6.00;58.60
14850;DHT22;7517;48.400;11.770;2023-03-01T03:52:54;6.00;59.20
14850;DHT22;7517;48.400;11.770;2023-03-01T03:55:22;6.00;58.70
14850;DHT22;7517;48.400;11.770;2023-03-01T03:57:57;5.90;58.70
14850;DHT22;7517;48.400;11.770;2023-03-01T04:00:29;5.90;58.80
14850;DHT22;7517;48.400;11.770;2023-03-01T04:02:56;5.80;58.80
14850;DHT22;7517;48.400;11.770;2023-03-01T04:05:24;5.70;58.80
14850;DHT22;7517;48.400;11.770;2023-03-01T04:07:52;5.70;58.80
14850;DHT22;7517;48.400;11.770;2023-03-01T04:10:35;5.70;58.90
14850;DHT22;7517;48.400;11.770;2023-03-01T04:13:04;5.60;58.90
14850;DHT22;7517;48.400;11.770;2023-03-01T04:15:34;5.60;59.00
14850;DHT22;7517;48.400;11.770;2023-03-01T04:18:02;5.60;59.10
14850;DHT22;7517;48.400;11.770;2023-03-01T04:20:32;5.50;59.10
14850;DHT22;7517;48.400;11.770;2023-03-01T04:23:06;5.50;59.20
14850;DHT22;7517;48.400;11.770;2023-03-01T04:25:39;5.50;59.30
14850;DHT22;7517;48.400;11.770;2023-03-01T04:28:09;5.40;59.40
14850;DHT22;7517;48.400;11.770;2023-03-01T04:30:38;5.40;59.40
14850;DHT22;7517;48.400;11.770;2023-03-01T04:33:11;5.40;59.50
14850;DHT22;7517;48.400;11.770;2023-03-01T04:35:39;5.30;59.40
14850;DHT22;7517;48.400;11.770;2023-03-01T04:38:07;5.30;59.40
14850;DHT22;7517;48.400;11.770;2023-03-01T04:40:35;5.30;59.50
14850;DHT22;7517;48.400;11.770;2023-03-01T04:43:03;5.20;59.40
14850;DHT22;7517;48.400;11.770;2023-03-01T04:45:32;5.20;59.50
14850;DHT22;7517;48.400;11.770;2023-03-01T04:48:04;5.20;59.60
14850;DHT22;7517;48.400;11.770;2023-03-01T04:50:31;5.20;59.70
14850;DHT22;7517;48.400;11.770;2023-03-01T04:52:59;5.10;59.60
14850;DHT22;7517;48.400;11.770;2023-03-01T04:55:28;5.10;59.60
14850;DHT22;7517;48.400;11.770;2023-03-01T04:57:55;5.10;59.70
14850;DHT22;7517;48.400;11.770;2023-03-01T05:00:23;5.00;59.70
14850;DHT22;7517;48.400;11.770;2023-03-01T05:02:53;5.00;59.70
14850;DHT22;7517;48.400;11.770;2023-03-01T05:05:26;5.00;59.80
14850;DHT22;7517;48.400;11.770;2023-03-01T05:07:57;5.00;59.90
14850;DHT22;7517;48.400;11.770;2023-03-01T05:10:27;5.00;59.90
14850;DHT22;7517;48.400;11.770;2023-03-01T05:12:56;4.90;59.90
14850;DHT22;7517;48.400;11.770;2023-03-01T05:15:25;4.90;59.90
14850;DHT22;7517;48.400;11.770;2023-03-01T05:17:53;4.90;60.00
14850;DHT22;7517;48.400;11.770;2023-03-01T05:20:25;4.90;60.10
14850;DHT22;7517;48.400;11.770;2023-03-01T05:22:57;4.90;60.20
14850;DHT22;7517;48.400;11.770;2023-03-01T05:25:32;4.90;60.20
14850;DHT22;7517;48.400;11.770;2023-03-01T05:28:06;4.90;60.20
14850;DHT22;7517;48.400;11.770;2023-03-01T05:30:38;4.80;60.20
14850;DHT22;7517;48.400;11.770;2023-03-01T05:33:05;4.80;60.20
14850;DHT22;7517;48.400;11.770;2023-03-01T05:35:40;4.80;60.20
14850;DHT22;7517;48.400;11.770;2023-03-01T05:38:08;4.80;60.30
14850;DHT22;7517;48.400;11.770;2023-03-01T05:40:39;4.80;60.30
14850;DHT22;7517;48.400;11.770;2023-03-01T05:43:07;4.70;60.30
14850;DHT22;7517;48.400;11.770;2023-03-01T05:45:36;4.70;60.30
14850;DHT22;7517;48.400;11.770;2023-03-01T05:48:05;4.70;60.40
14850;DHT22;7517;48.400;11.770;2023-03-01T05:50:35;4.70;60.40
14850;DHT22;7517;48.400;11.770;2023-03-01T05:53:09;4.70;60.40
14850;DHT22;7517;48.400;11.770;2023-03-01T05:55:38;4.70;60.50
14850;DHT22;7517;48.400;11.770;2023-03-01T05:58:07;4.60;60.50
14850;DHT22;7517;48.400;11.770;2023-03-01T06:00:41;4.60;60.50
14850;DHT22;7517;48.400;11.770;2023-03-01T06:03:10;4.60;60.60
14850;DHT22;7517;48.400;11.770;2023-03-01T06:05:42;4.60;60.70
14850;DHT22;7517;48.400;11.770;2023-03-01T06:08:12;4.60;60.60
14850;DHT22;7517;48.400;11.770;2023-03-01T06:10:40;4.60;60.70
14850;DHT22;7517;48.400;11.770;2023-03-01T06:13:08;4.60;60.60
14850;DHT22;7517;48.400;11.770;2023-03-01T06:15:35;4.60;60.60
14850;DHT22;7517;48.400;11.770;2023-03-01T06:18:03;4.60;60.60
14850;DHT22;7517;48.400;11.770;2023-03-01T06:20:31;4.70;60.80
14850;DHT22;7517;48.400;11.770;2023-03-01T06:22:58;4.70;60.80
14850;DHT22;7517;48.400;11.770;2023-03-01T06:25:28;4.70;60.80
14850;DHT22;7517;48.400;11.770;2023-03-01T06:27:55;4.70;60.80
14850;DHT22;7517;48.400;11.770;2023-03-01T06:30:26;4.70;60.90
14850;DHT22;7517;48.400;11.770;2023-03-01T06:32:54;4.70;60.90
14850;DHT22;7517;48.400;11.770;2023-03-01T06:35:27;4.70;60.90
14850;DHT22;7517;48.400;11.770;2023-03-01T06:37:57;4.70;60.80
14850;DHT22;7517;48.400;11.770;2023-03-01T06:40:29;4.70;60.90
14850;DHT22;7517;48.400;11.770;2023-03-01T06:42:58;4.70;61.00
14850;DHT22;7517;48.400;11.770;2023-03-01T06:45:31;4.80;61.00
14850;DHT22;7517;48.400;11.770;2023-03-01T06:48:03;4.80;61.00
14850;DHT22;7517;48.400;11.770;2023-03-01T06:50:31;4.80;61.10
14850;DHT22;7517;48.400;11.770;2023-03-01T06:52:59;4.80;61.10
14850;DHT22;7517;48.400;11.770;2023-03-01T06:55:29;4.80;61.20
14850;DHT22;7517;48.400;11.770;2023-03-01T06:57:57;4.90;61.30
14850;DHT22;7517;48.400;11.770;2023-03-01T07:00:27;4.80;61.30
14850;DHT22;7517;48.400;11.770;2023-03-01T07:02:59;4.90;61.30
14850;DHT22;7517;48.400;11.770;2023-03-01T07:05:27;4.90;61.30
14850;DHT22;7517;48.400;11.770;2023-03-01T07:07:55;4.90;61.20
14850;DHT22;7517;48.400;11.770;2023-03-01T07:10:23;5.00;61.30
14850;DHT22;7517;48.400;11.770;2023-03-01T07:12:55;5.00;61.30
14850;DHT22;7517;48.400;11.770;2023-03-01T07:15:24;5.00;61.10
14850;DHT22;7517;48.400;11.770;2023-03-01T07:17:52;5.00;61.20
14850;DHT22;7517;48.400;11.770;2023-03-01T07:20:20;5.00;61.30
14850;DHT22;7517;48.400;11.770;2023-03-01T07:22:50;5.10;61.30
14850;DHT22;7517;48.400;11.770;2023-03-01T07:25:18;5.10;61.20
14850;DHT22;7517;48.400;11.770;2023-03-01T07:27:49;5.10;61.20
14850;DHT22;7517;48.400;11.770;2023-03-01T07:30:20;5.20;61.10
14850;DHT22;7517;48.400;11.770;2023-03-01T07:32:51;5.20;61.10
14850;DHT22;7517;48.400;11.770;2023-03-01T07:35:19;5.20;61.10
14850;DHT22;7517;48.400;11.770;2023-03-01T07:37:46;5.20;61.10
14850;DHT22;7517;48.400;11.770;2023-03-01T07:40:14;5.30;61.20
14850;DHT22;7517;48.400;11.770;2023-03-01T07:42:41;5.30;61.10
14850;DHT22;7517;48.400;11.770;2023-03-01T07:45:10;5.30;60.90
14850;DHT22;7517;48.400;11.770;2023-03-01T07:47:40;5.40;61.00
14850;DHT22;7517;48.400;11.770;2023-03-01T07:50:09;5.50;61.10
14850;DHT22;7517;48.400;11.770;2023-03-01T07:52:39;5.50;61.50
14850;DHT22;7517;48.400;11.770;2023-03-01T07:55:07;5.60;61.00
14850;DHT22;7517;48.400;11.770;2023-03-01T07:57:35;5.60;60.80
14850;DHT22;7517;48.400;11.770;2023-03-01T08:00:05;5.70;60.80
14850;DHT22;7517;48.400;11.770;2023-03-01T08:02:33;5.70;60.60
14850;DHT22;7517;48.400;11.770;2023-03-01T08:05:02;5.80;60.60
14850;DHT22;7517;48.400;11.770;2023-03-01T08:07:30;5.90;60.50
14850;DHT22;7517;48.400;11.770;2023-03-01T08:09:57;5.90;60.50
14850;DHT22;7517;48.400;11.770;2023-03-01T08:12:25;6.00;60.50
14850;DHT22;7517;48.400;11.770;2023-03-01T08:14:53;6.10;60.50
14850;DHT22;7517;48.400;11.770;2023-03-01T08:17:21;6.20;60.50
14850;DHT22;7517;48.400;11.770;2023-03-01T08:19:48;6.30;60.40
14850;DHT22;7517;48.400;11.770;2023-03-01T08:22:17;6.40;60.30
14850;DHT22;7517;48.400;11.770;2023-03-01T08:24:44;6.50;60.20
14850;DHT22;7517;48.400;11.770;2023-03-01T08:27:14;6.60;60.20
14850;DHT22;7517;48.400;11.770;2023-03-01T08:29:43;6.70;60.20
14850;DHT22;7517;48.400;11.770;2023-03-01T08:32:10;6.80;60.10
14850;DHT22;7517;48.400;11.770;2023-03-01T08:34:38;7.00;60.00
14850;DHT22;7517;48.400;11.770;2023-03-01T08:37:05;7.00;59.80
14850;DHT22;7517;48.400;11.770;2023-03-01T08:39:34;7.20;59.90
14850;DHT22;7517;48.400;11.770;2023-03-01T08:42:01;7.30;59.50
14850;DHT22;7517;48.400;11.770;2023-03-01T08:44:29;7.40;59.40
14850;DHT22;7517;48.400;11.770;2023-03-01T08:46:56;7.60;59.40
14850;DHT22;7517;48.400;11.770;2023-03-01T08:49:23;7.70;59.30
14850;DHT22;7517;48.400;11.770;2023-03-01T08:51:51;7.80;59.00
14850;DHT22;7517;48.400;11.770;2023-03-01T08:54:21;7.90;58.90
14850;DHT22;7517;48.400;11.770;2023-03-01T08:56:50;8.10;58.80
14850;DHT22;7517;48.400;11.770;2023-03-01T08:59:18;8.20;58.60
14850;DHT22;7517;48.400;11.770;2023-03-01T09:01:45;8.30;58.70
14850;DHT22;7517;48.400;11.770;2023-03-01T09:04:15;8.40;58.50
14850;DHT22;7517;48.400;11.770;2023-03-01T09:06:43;8.60;58.40
14850;DHT22;7517;48.400;11.770;2023-03-01T09:09:13;8.70;58.30
14850;DHT22;7517;48.400;11.770;2023-03-01T09:11:42;8.80;58.00
14850;DHT22;7517;48.400;11.770;2023-03-01T09:14:14;8.90;58.00
14850;DHT22;7517;48.400;11.770;2023-03-01T09:16:41;9.00;57.80
14850;DHT22;7517;48.400;11.770;2023-03-01T09:19:09;9.10;57.80
14850;DHT22;7517;48.400;11.770;2023-03-01T09:21:37;9.30;58.00
14850;DHT22;7517;48.400;11.770;2023-03-01T09:24:05;9.40;57.80
14850;DHT22;7517;48.400;11.770;2023-03-01T09:26:33;9.50;57.80
14850;DHT22;7517;48.400;11.770;2023-03-01T09:29:00;9.70;57.70
14850;DHT22;7517;48.400;11.770;2023-03-01T09:31:29;9.80;57.40
14850;DHT22;7517;48.400;11.770;2023-03-01T09:33:58;9.90;57.30
14850;DHT22;7517;48.400;11.770;2023-03-01T09:36:25;10.00;57.30
14850;DHT22;7517;48.400;11.770;2023-03-01T09:38:53;10.10;57.00
14850;DHT22;7517;48.400;11.770;2023-03-01T09:41:47;10.30;56.80
14850;DHT22;7517;48.400;11.770;2023-03-01T09:44:28;10.40;56.00
14850;DHT22;7517;48.400;11.770;2023-03-01T09:47:02;10.60;56.60
14850;DHT22;7517;48.400;11.770;2023-03-01T09:49:33;10.70;56.80
14850;DHT22;7517;48.400;11.770;2023-03-01T09:52:16;10.80;56.60
14850;DHT22;7517;48.400;11.770;2023-03-01T09:54:54;11.00;56.40
14850;DHT22;7517;48.400;11.770;2023-03-01T09:57:28;11.20;56.50
14850;DHT22;7517;48.400;11.770;2023-03-01T10:00:17;11.30;56.40
14850;DHT22;7517;48.400;11.770;2023-03-01T10:02:57;11.40;56.30
14850;DHT22;7517;48.400;11.770;2023-03-01T10:05:36;11.60;56.20
14850;DHT22;7517;48.400;11.770;2023-03-01T10:08:26;11.80;56.20
14850;DHT22;7517;48.400;11.770;2023-03-01T10:10:57;12.00;56.10
14850;DHT22;7517;48.400;11.770;2023-03-01T10:13:31;12.20;56.70
14850;DHT22;7517;48.400;11.770;2023-03-01T10:16:10;12.40;56.20
14850;DHT22;7517;48.400;11.770;2023-03-01T10:18:45;12.50;55.90
14850;DHT22;7517;48.400;11.770;2023-03-01T10:21:17;12.70;55.70
14850;DHT22;7517;48.400;11.770;2023-03-01T10:23:49;12.80;55.30
14850;DHT22;7517;48.400;11.770;2023-03-01T10:26:32;13.00;55.40
14850;DHT22;7517;48.400;11.770;2023-03-01T10:29:19;13.10;54.70
14850;DHT22;7517;48.400;11.770;2023-03-01T10:31:57;13.30;55.20
14850;DHT22;7517;48.400;11.770;2023-03-01T10:34:30;13.30;54.30
14850;DHT22;7517;48.400;11.770;2023-03-01T10:37:08;13.40;54.20
14850;DHT22;7517;48.400;11.770;2023-03-01T10:39:37;13.50;54.00
14850;DHT22;7517;48.400;11.770;2023-03-01T10:42:26;13.60;54.20
14850;DHT22;7517;48.400;11.770;2023-03-01T10:44:56;13.60;53.90
14850;DHT22;7517;48.400;11.770;2023-03-01T10:47:27;13.70;53.90
14850;DHT22;7517;48.400;11.770;2023-03-01T10:50:01;13.70;53.70
14850;DHT22;7517;48.400;11.770;2023-03-01T10:52:33;13.80;53.40
14850;DHT22;7517;48.400;11.770;2023-03-01T10:55:04;13.80;53.40
14850;DHT22;7517;48.400;11.770;2023-03-01T10:58:07;13.90;53.20
14850;DHT22;7517;48.400;11.770;2023-03-01T11:00:51;13.90;52.40
14850;DHT22;7517;48.400;11.770;2023-03-01T11:03:23;13.90;52.60
14850;DHT22;7517;48.400;11.770;2023-03-01T11:05:56;13.90;52.60
14850;DHT22;7517;48.400;11.770;2023-03-01T11:08:37;13.80;52.40
14850;DHT22;7517;48.400;11.770;2023-03-01T11:11:25;13.80;51.80
14850;DHT22;7517;48.400;11.770;2023-03-01T11:13:59;13.70;51.60
14850;DHT22;7517;48.400;11.770;2023-03-01T11:16:36;13.60;51.80
14850;DHT22;7517;48.400;11.770;2023-03-01T11:19:17;13.50;51.30
14850;DHT22;7517;48.400;11.770;2023-03-01T11:21:59;13.30;50.90
14850;DHT22;7517;48.400;11.770;2023-03-01T11:24:33;13.20;51.20
14850;DHT22;7517;48.400;11.770;2023-03-01T11:27:20;13.00;51.60
14850;DHT22;7517;48.400;11.770;2023-03-01T11:29:55;12.90;51.60
14850;DHT22;7517;48.400;11.770;2023-03-01T11:32:31;12.80;52.30
14850;DHT22;7517;48.400;11.770;2023-03-01T11:35:13;12.70;52.40
14850;DHT22;7517;48.400;11.770;2023-03-01T11:37:55;12.60;52.30
14850;DHT22;7517;48.400;11.770;2023-03-01T11:40:33;12.50;52.20
14850;DHT22;7517;48.400;11.770;2023-03-01T11:43:15;12.50;52.80
14850;DHT22;7517;48.400;11.770;2023-03-01T11:45:57;12.40;53.00
14850;DHT22;7517;48.400;11.770;2023-03-01T11:48:48;12.40;53.10
14850;DHT22;7517;48.400;11.770;2023-03-01T11:51:32;12.30;53.10
14850;DHT22;7517;48.400;11.770;2023-03-01T11:54:30;12.30;53.10
14850;DHT22;7517;48.400;11.770;2023-03-01T11:57:19;12.30;53.00
14850;DHT22;7517;48.400;11.770;2023-03-01T12:00:14;12.30;53.30
14850;DHT22;7517;48.400;11.770;2023-03-01T12:03:20;12.30;53.50
14850;DHT22;7517;48.400;11.770;2023-03-01T12:09:21;12.20;53.20
14850;DHT22;7517;48.400;11.770;2023-03-01T12:12:26;12.20;53.60
14850;DHT22;7517;48.400;11.770;2023-03-01T12:15:20;12.80;53.70
14850;DHT22;7517;48.400;11.770;2023-03-01T12:18:18;12.20;53.60
14850;DHT22;7517;48.400;11.770;2023-03-01T12:21:14;12.20;53.50
14850;DHT22;7517;48.400;11.770;2023-03-01T12:24:04;12.20;53.80
14850;DHT22;7517;48.400;11.770;2023-03-01T12:26:56;12.20;53.60
14850;DHT22;7517;48.400;11.770;2023-03-01T12:29:43;12.20;53.60
14850;DHT22;7517;48.400;11.770;2023-03-01T12:32:25;12.20;53.60
14850;DHT22;7517;48.400;11.770;2023-03-01T12:35:11;12.20;53.60
14850;DHT22;7517;48.400;11.770;2023-03-01T12:37:54;12.20;53.60
14850;DHT22;7517;48.400;11.770;2023-03-01T12:40:37;12.20;53.50
14850;DHT22;7517;48.400;11.770;2023-03-01T12:43:33;12.10;53.70
14850;DHT22;7517;48.400;11.770;2023-03-01T12:46:19;12.10;53.50
14850;DHT22;7517;48.400;11.770;2023-03-01T12:48:59;12.20;53.80
14850;DHT22;7517;48.400;11.770;2023-03-01T12:51:37;12.20;53.60
14850;DHT22;7517;48.400;11.770;2023-03-01T12:54:14;12.20;53.80
14850;DHT22;7517;48.400;11.770;2023-03-01T12:56:45;12.20;53.60
14850;DHT22;7517;48.400;11.770;2023-03-01T12:59:21;12.10;53.60
14850;DHT22;7517;48.400;11.770;2023-03-01T13:02:05;12.10;53.70
14850;DHT22;7517;48.400;11.770;2023-03-01T13:04:54;12.10;53.80
14850;DHT22;7517;48.400;11.770;2023-03-01T13:07:37;12.20;54.00
14850;DHT22;7517;48.400;11.770;2023-03-01T13:10:21;12.20;54.20
14850;DHT22;7517;48.400;11.770;2023-03-01T13:13:03;12.20;54.10
14850;DHT22;7517;48.400;11.770;2023-03-01T13:15:53;12.20;54.20
14850;DHT22;7517;48.400;11.770;2023-03-01T13:18:30;12.30;54.40
14850;DHT22;7517;48.400;11.770;2023-03-01T13:21:01;12.30;54.20
14850;DHT22;7517;48.400;11.770;2023-03-01T13:23:34;12.30;54.40
14850;DHT22;7517;48.400;11.770;2023-03-01T13:26:10;12.40;54.40
14850;DHT22;7517;48.400;11.770;2023-03-01T13:28:51;12.40;54.20
14850;DHT22;7517;48.400;11.770;2023-03-01T13:35:02;12.50;53.80
14850;DHT22;7517;48.400;11.770;2023-03-01T13:37:36;12.50;53.60
14850;DHT22;7517;48.400;11.770;2023-03-01T13:43:30;12.50;53.50
14850;DHT22;7517;48.400;11.770;2023-03-01T13:46:00;12.50;53.90
14850;DHT22;7517;48.400;11.770;2023-03-01T13:48:37;12.50;54.00
14850;DHT22;7517;48.400;11.770;2023-03-01T13:51:10;12.50;54.20
14850;DHT22;7517;48.400;11.770;2023-03-01T13:53:42;12.50;54.10
14850;DHT22;7517;48.400;11.770;2023-03-01T13:56:12;12.50;54.30
14850;DHT22;7517;48.400;11.770;2023-03-01T13:58:52;12.60;54.30
14850;DHT22;7517;48.400;11.770;2023-03-01T14:01:24;12.60;54.10
14850;DHT22;7517;48.400;11.770;2023-03-01T14:03:53;12.60;54.40
14850;DHT22;7517;48.400;11.770;2023-03-01T14:06:24;12.60;54.50
14850;DHT22;7517;48.400;11.770;2023-03-01T14:09:02;12.70;54.40
14850;DHT22;7517;48.400;11.770;2023-03-01T14:12:13;12.70;54.10
14850;DHT22;7517;48.400;11.770;2023-03-01T14:14:56;12.70;53.80
14850;DHT22;7517;48.400;11.770;2023-03-01T14:17:43;12.70;54.50
14850;DHT22;7517;48.400;11.770;2023-03-01T14:20:23;12.80;54.40
14850;DHT22;7517;48.400;11.770;2023-03-01T14:22:56;12.70;54.40
14850;DHT22;7517;48.400;11.770;2023-03-01T14:25:29;12.80;54.40
14850;DHT22;7517;48.400;11.770;2023-03-01T14:28:03;12.80;54.50
14850;DHT22;7517;48.400;11.770;2023-03-01T14:30:42;12.80;54.50
14850;DHT22;7517;48.400;11.770;2023-03-01T14:33:21;12.90;54.80
14850;DHT22;7517;48.400;11.770;2023-03-01T14:35:56;12.90;54.60
14850;DHT22;7517;48.400;11.770;2023-03-01T14:38:33;12.90;54.50
14850;DHT22;7517;48.400;11.770;2023-03-01T14:41:06;13.00;54.50
14850;DHT22;7517;48.400;11.770;2023-03-01T14:43:38;13.00;54.60
14850;DHT22;7517;48.400;11.770;2023-03-01T14:46:18;13.00;54.50
14850;DHT22;7517;48.400;11.770;2023-03-01T14:48:50;13.00;54.20
14850;DHT22;7517;48.400;11.770;2023-03-01T14:51:18;13.10;54.50
14850;DHT22;7517;48.400;11.770;2023-03-01T14:53:48;13.10;54.60
14850;DHT22;7517;48.400;11.770;2023-03-01T14:56:17;13.10;54.30
14850;DHT22;7517;48.400;11.770;2023-03-01T14:58:47;13.20;54.40
14850;DHT22;7517;48.400;11.770;2023-03-01T15:01:20;13.20;54.60
14850;DHT22;7517;48.400;11.770;2023-03-01T15:04:02;13.20;54.40
14850;DHT22;7517;48.400;11.770;2023-03-01T15:06:33;13.20;54.50
14850;DHT22;7517;48.400;11.770;2023-03-01T15:09:02;13.20;54.50
14850;DHT22;7517;48.400;11.770;2023-03-01T15:11:31;13.20;54.50
14850;DHT22;7517;48.400;11.770;2023-03-01T15:14:03;13.30;54.60
14850;DHT22;7517;48.400;11.770;2023-03-01T15:16:54;13.20;54.50
14850;DHT22;7517;48.400;11.770;2023-03-01T15:19:24;13.20;54.50
14850;DHT22;7517;48.400;11.770;2023-03-01T15:21:55;13.30;54.50
14850;DHT22;7517;48.400;11.770;2023-03-01T15:24:26;13.30;54.60
14850;DHT22;7517;48.400;11.770;2023-03-01T15:26:57;13.30;54.60
14850;DHT22;7517;48.400;11.770;2023-03-01T15:29:29;13.30;55.10
14850;DHT22;7517;48.400;11.770;2023-03-01T15:32:01;13.30;54.50
14850;DHT22;7517;48.400;11.770;2023-03-01T15:34:38;13.30;54.50
14850;DHT22;7517;48.400;11.770;2023-03-01T15:37:43;13.20;54.40
14850;DHT22;7517;48.400;11.770;2023-03-01T15:40:29;13.30;54.10
14850;DHT22;7517;48.400;11.770;2023-03-01T15:43:37;13.40;54.40
14850;DHT22;7517;48.400;11.770;2023-03-01T15:46:21;13.40;54.30
14850;DHT22;7517;48.400;11.770;2023-03-01T15:48:57;13.40;54.50
14850;DHT22;7517;48.400;11.770;2023-03-01T15:51:31;13.40;54.70
14850;DHT22;7517;48.400;11.770;2023-03-01T15:54:05;13.30;54.60
14850;DHT22;7517;48.400;11.770;2023-03-01T15:56:40;13.30;54.60
14850;DHT22;7517;48.400;11.770;2023-03-01T15:59:10;13.30;54.80
14850;DHT22;7517;48.400;11.770;2023-03-01T16:01:40;13.30;54.80
14850;DHT22;7517;48.400;11.770;2023-03-01T16:04:10;13.30;54.70
14850;DHT22;7517;48.400;11.770;2023-03-01T16:06:39;13.30;54.70
14850;DHT22;7517;48.400;11.770;2023-03-01T16:09:08;13.30;54.70
14850;DHT22;7517;48.400;11.770;2023-03-01T16:11:38;13.30;54.70
14850;DHT22;7517;48.400;11.770;2023-03-01T16:14:08;13.30;54.80
14850;DHT22;7517;48.400;11.770;2023-03-01T16:16:36;13.30;54.70
14850;DHT22;7517;48.400;11.770;2023-03-01T16:19:03;13.30;54.70
14850;DHT22;7517;48.400;11.770;2023-03-01T16:21:31;13.30;54.80
14850;DHT22;7517;48.400;11.770;2023-03-01T16:23:58;13.20;54.80
14850;DHT22;7517;48.400;11.770;2023-03-01T16:26:27;13.20;54.80
14850;DHT22;7517;48.400;11.770;2023-03-01T16:28:55;13.20;54.60